createdAt,value
2023-04-09T00:00:35.194Z,5.75
2023-04-09T00:01:58.295Z,5.75
2023-04-09T00:02:35.214Z,5.74
2023-04-09T00:03:36.484Z,5.77
2023-04-09T00:04:35.199Z,5.74
2023-04-09T00:05:35.355Z,5.74
2023-04-09T00:06:35.115Z,5.75
2023-04-09T00:07:35.270Z,5.74
2023-04-09T00:08:35.095Z,5.73
2023-04-09T00:09:35.391Z,5.71
2023-04-09T00:10:35.104Z,5.74
2023-04-09T00:11:36.227Z,5.71
2023-04-09T00:12:35.057Z,5.68
2023-04-09T00:13:39.196Z,5.68
2023-04-09T00:14:35.121Z,5.68
2023-04-09T00:15:35.429Z,5.67
2023-04-09T00:16:35.126Z,5.66
2023-04-09T00:17:35.194Z,5.66
2023-04-09T00:18:35.061Z,5.66
2023-04-09T00:19:35.147Z,5.66
2023-04-09T00:20:34.985Z,5.63
2023-04-09T00:21:35.166Z,5.60
2023-04-09T00:22:34.952Z,5.60
2023-04-09T00:23:35.231Z,5.59
2023-04-09T00:24:34.952Z,5.63
2023-04-09T00:25:35.203Z,5.64
2023-04-09T00:26:34.922Z,5.64
2023-04-09T00:27:35.190Z,5.64
2023-04-09T00:28:35.005Z,5.64
2023-04-09T00:29:35.299Z,5.64
2023-04-09T00:30:34.962Z,5.64
2023-04-09T00:31:35.209Z,5.64
2023-04-09T00:32:34.863Z,5.63
2023-04-09T00:33:35.062Z,5.60
2023-04-09T00:34:34.832Z,5.57
2023-04-09T00:35:35.036Z,5.57
2023-04-09T00:36:34.833Z,5.57
2023-04-09T00:37:35.905Z,5.57
2023-04-09T00:38:34.800Z,5.59
2023-04-09T00:39:34.939Z,5.59
2023-04-09T00:40:34.832Z,5.57
2023-04-09T00:41:35.971Z,5.59
2023-04-09T00:42:34.777Z,5.59
2023-04-09T00:43:36.808Z,5.60
2023-04-09T00:44:34.722Z,5.59
2023-04-09T00:45:34.768Z,5.55
2023-04-09T00:46:34.712Z,5.55
2023-04-09T00:47:34.776Z,5.56
2023-04-09T00:48:34.704Z,5.56
2023-04-09T00:49:34.792Z,5.57
2023-04-09T00:50:34.704Z,5.59
2023-04-09T00:51:34.773Z,5.60
2023-04-09T00:52:34.646Z,5.59
2023-04-09T00:53:34.692Z,5.57
2023-04-09T00:54:34.624Z,5.55
2023-04-09T00:55:34.700Z,5.55
2023-04-09T00:56:34.622Z,5.55
2023-04-09T00:57:34.714Z,5.55
2023-04-09T00:58:34.589Z,5.55
2023-04-09T00:59:34.625Z,5.56
2023-04-09T01:00:34.563Z,5.56
2023-04-09T01:01:34.772Z,5.57
2023-04-09T01:02:34.773Z,5.59
2023-04-09T01:03:34.888Z,5.59
2023-04-09T01:04:34.523Z,5.59
2023-04-09T01:05:34.560Z,5.57
2023-04-09T01:06:34.501Z,5.55
2023-04-09T01:07:34.597Z,5.55
2023-04-09T01:08:34.488Z,5.55
2023-04-09T01:09:34.633Z,5.50
2023-04-09T01:10:34.460Z,5.46
2023-04-09T01:11:34.489Z,5.40
2023-04-09T01:12:34.436Z,5.35
2023-04-09T01:13:34.507Z,5.35
2023-04-09T01:14:34.430Z,5.37
2023-04-09T01:15:34.536Z,5.38
2023-04-09T01:16:34.419Z,5.40
2023-04-09T01:17:34.454Z,5.40
2023-04-09T01:18:34.380Z,5.41
2023-04-09T01:19:34.490Z,5.45
2023-04-09T01:20:34.343Z,5.45
2023-04-09T01:21:34.476Z,5.46
2023-04-09T01:22:34.730Z,5.48
2023-04-09T01:23:34.385Z,5.49
2023-04-09T01:24:34.311Z,5.49
2023-04-09T01:25:34.394Z,5.52
2023-04-09T01:26:34.291Z,5.49
2023-04-09T01:27:34.420Z,5.48
2023-04-09T01:28:34.293Z,5.49
2023-04-09T01:29:34.331Z,5.48
2023-04-09T01:30:34.306Z,5.46
2023-04-09T01:31:35.387Z,5.46
2023-04-09T01:32:34.235Z,5.41
2023-04-09T01:33:34.378Z,5.38
2023-04-09T01:34:34.223Z,5.35
2023-04-09T01:35:34.277Z,5.35
2023-04-09T01:36:34.178Z,5.34
2023-04-09T01:37:34.271Z,5.32
2023-04-09T01:38:34.170Z,5.32
2023-04-09T01:39:34.433Z,5.34
2023-04-09T01:40:34.155Z,5.35
2023-04-09T01:41:34.200Z,5.35
2023-04-09T01:42:34.136Z,5.35
2023-04-09T01:43:34.222Z,5.38
2023-04-09T01:44:34.127Z,5.37
2023-04-09T01:45:34.238Z,5.40
2023-04-09T01:46:34.127Z,5.41
2023-04-09T01:47:34.189Z,5.41
2023-04-09T01:48:34.074Z,5.43
2023-04-09T01:49:34.155Z,5.45
2023-04-09T01:50:34.040Z,5.46
2023-04-09T01:51:34.169Z,5.45
2023-04-09T01:52:34.031Z,5.41
2023-04-09T01:53:34.110Z,5.40
2023-04-09T01:54:33.995Z,5.41
2023-04-09T01:55:34.098Z,5.43
2023-04-09T01:56:33.983Z,5.41
2023-04-09T01:57:34.126Z,5.38
2023-04-09T01:58:33.999Z,5.38
2023-04-09T01:59:34.132Z,5.38
2023-04-09T02:00:33.974Z,5.38
2023-04-09T02:01:34.137Z,5.38
2023-04-09T02:02:34.064Z,5.41
2023-04-09T02:03:34.243Z,5.43
2023-04-09T02:04:33.898Z,5.43
2023-04-09T02:05:33.993Z,5.46
2023-04-09T02:06:33.882Z,5.46
2023-04-09T02:07:33.982Z,5.46
2023-04-09T02:08:33.857Z,5.46
2023-04-09T02:09:33.996Z,5.46
2023-04-09T02:10:33.855Z,5.46
2023-04-09T02:11:34.016Z,5.46
2023-04-09T02:12:33.816Z,5.45
2023-04-09T02:13:33.920Z,5.45
2023-04-09T02:14:33.820Z,5.46
2023-04-09T02:15:33.954Z,5.46
2023-04-09T02:16:33.796Z,5.46
2023-04-09T02:17:33.978Z,5.48
2023-04-09T02:18:33.757Z,5.48
2023-04-09T02:19:33.892Z,5.49
2023-04-09T02:20:33.744Z,5.49
2023-04-09T02:21:56.914Z,5.52
2023-04-09T02:22:33.703Z,5.50
2023-04-09T02:23:56.824Z,5.53
2023-04-09T02:24:33.707Z,5.52
2023-04-09T02:25:36.969Z,5.53
2023-04-09T02:26:33.674Z,5.53
2023-04-09T02:27:35.761Z,5.55
2023-04-09T02:28:33.660Z,5.56
2023-04-09T02:29:33.839Z,5.53
2023-04-09T02:30:33.657Z,5.53
2023-04-09T02:31:33.781Z,5.50
2023-04-09T02:32:33.684Z,5.46
2023-04-09T02:33:33.756Z,5.46
2023-04-09T02:34:33.583Z,5.45
2023-04-09T02:35:33.833Z,5.45
2023-04-09T02:36:33.566Z,5.43
2023-04-09T02:37:33.692Z,5.45
2023-04-09T02:38:33.559Z,5.43
2023-04-09T02:39:33.707Z,5.46
2023-04-09T02:40:33.551Z,5.45
2023-04-09T02:41:33.713Z,5.43
2023-04-09T02:42:33.509Z,5.40
2023-04-09T02:43:33.618Z,5.40
2023-04-09T02:44:33.489Z,5.38
2023-04-09T02:45:33.666Z,5.35
2023-04-09T02:46:33.571Z,5.35
2023-04-09T02:47:33.658Z,5.37
2023-04-09T02:48:33.447Z,5.38
2023-04-09T02:49:33.567Z,5.38
2023-04-09T02:50:33.455Z,5.38
2023-04-09T02:51:33.619Z,5.37
2023-04-09T02:52:33.416Z,5.41
2023-04-09T02:53:33.608Z,5.40
2023-04-09T02:54:33.403Z,5.41
2023-04-09T02:55:33.512Z,5.41
2023-04-09T02:56:33.393Z,5.43
2023-04-09T02:57:33.736Z,5.43
2023-04-09T02:58:33.345Z,5.45
2023-04-09T02:59:33.442Z,5.45
2023-04-09T03:00:33.340Z,5.45
2023-04-09T03:01:35.656Z,5.46
2023-04-09T03:02:33.402Z,5.46
2023-04-09T03:03:54.613Z,5.45
2023-04-09T03:04:33.289Z,5.43
2023-04-09T03:05:54.377Z,5.45
2023-04-09T03:06:33.276Z,5.43
2023-04-09T03:07:33.316Z,5.46
2023-04-09T03:08:33.232Z,5.46
2023-04-09T03:09:33.308Z,5.45
2023-04-09T03:10:33.226Z,5.45
2023-04-09T03:11:34.256Z,5.45
2023-04-09T03:12:33.205Z,5.46
2023-04-09T03:13:33.282Z,5.46
2023-04-09T03:14:35.130Z,5.49
2023-04-09T03:15:33.256Z,5.49
2023-04-09T03:16:33.167Z,5.49
2023-04-09T03:17:33.298Z,5.49
2023-04-09T03:18:33.160Z,5.49
2023-04-09T03:19:33.173Z,5.48
2023-04-09T03:20:33.120Z,5.49
2023-04-09T03:21:33.184Z,5.49
2023-04-09T03:22:33.121Z,5.50
2023-04-09T03:23:33.196Z,5.50
2023-04-09T03:24:33.078Z,5.52
2023-04-09T03:25:33.115Z,5.50
2023-04-09T03:26:33.057Z,5.48
2023-04-09T03:27:33.133Z,5.49
2023-04-09T03:28:33.067Z,5.49
2023-04-09T03:29:33.149Z,5.48
2023-04-09T03:30:33.025Z,5.50
2023-04-09T03:31:33.140Z,5.48
2023-04-09T03:32:33.046Z,5.48
2023-04-09T03:33:33.072Z,5.45
2023-04-09T03:34:32.978Z,5.45
2023-04-09T03:35:33.083Z,5.45
2023-04-09T03:36:32.958Z,5.45
2023-04-09T03:37:33.040Z,5.43
2023-04-09T03:38:32.926Z,5.45
2023-04-09T03:39:33.015Z,5.45
2023-04-09T03:40:32.925Z,5.43
2023-04-09T03:41:33.023Z,5.43
2023-04-09T03:42:32.919Z,5.41
2023-04-09T03:43:32.931Z,5.40
2023-04-09T03:44:32.879Z,5.40
2023-04-09T03:45:32.948Z,5.41
2023-04-09T03:46:32.874Z,5.41
2023-04-09T03:47:32.964Z,5.43
2023-04-09T03:48:32.823Z,5.43
2023-04-09T03:49:33.906Z,5.41
2023-04-09T03:50:32.810Z,5.43
2023-04-09T03:51:32.933Z,5.40
2023-04-09T03:52:32.799Z,5.41
2023-04-09T03:53:32.901Z,5.40
2023-04-09T03:54:32.780Z,5.45
2023-04-09T03:55:32.920Z,5.43
2023-04-09T03:56:32.775Z,5.45
2023-04-09T03:57:57.094Z,5.43
2023-04-09T03:58:32.717Z,5.45
2023-04-09T03:59:34.732Z,5.45
2023-04-09T04:00:32.700Z,5.46
2023-04-09T04:01:32.886Z,5.45
2023-04-09T04:02:32.810Z,5.45
2023-04-09T04:03:33.004Z,5.46
2023-04-09T04:04:32.714Z,5.46
2023-04-09T04:05:32.781Z,5.45
2023-04-09T04:06:32.642Z,5.48
2023-04-09T04:07:32.815Z,5.46
2023-04-09T04:08:32.642Z,5.46
2023-04-09T04:09:32.720Z,5.46
2023-04-09T04:10:32.612Z,5.48
2023-04-09T04:11:32.729Z,5.48
2023-04-09T04:12:32.571Z,5.49
2023-04-09T04:13:32.783Z,5.49
2023-04-09T04:14:32.571Z,5.50
2023-04-09T04:15:32.657Z,5.49
2023-04-09T04:16:32.600Z,5.50
2023-04-09T04:17:32.683Z,5.50
2023-04-09T04:18:32.518Z,5.52
2023-04-09T04:19:32.613Z,5.52
2023-04-09T04:20:32.499Z,5.50
2023-04-09T04:21:32.593Z,5.52
2023-04-09T04:22:32.473Z,5.52
2023-04-09T04:23:32.605Z,5.52
2023-04-09T04:24:32.464Z,5.55
2023-04-09T04:25:32.614Z,5.53
2023-04-09T04:26:32.442Z,5.53
2023-04-09T04:27:32.522Z,5.50
2023-04-09T04:28:32.415Z,5.49
2023-04-09T04:29:32.542Z,5.48
2023-04-09T04:30:32.419Z,5.49
2023-04-09T04:31:32.540Z,5.48
2023-04-09T04:32:32.417Z,5.46
2023-04-09T04:33:32.474Z,5.46
2023-04-09T04:34:32.386Z,5.45
2023-04-09T04:35:32.504Z,5.41
2023-04-09T04:36:32.360Z,5.40
2023-04-09T04:37:32.507Z,5.38
2023-04-09T04:38:32.316Z,5.34
2023-04-09T04:39:33.428Z,5.35
2023-04-09T04:40:32.294Z,5.35
2023-04-09T04:41:32.479Z,5.37
2023-04-09T04:42:32.276Z,5.37
2023-04-09T04:43:32.464Z,5.37
2023-04-09T04:44:32.264Z,5.38
2023-04-09T04:55:07.796Z,5.45
2023-04-09T04:56:08.621Z,5.43
2023-04-09T04:57:09.827Z,5.41
2023-04-09T04:58:08.599Z,5.40
2023-04-09T04:59:08.877Z,5.41
2023-04-09T05:00:11.316Z,5.38
2023-04-09T05:01:08.746Z,5.40
2023-04-09T05:02:08.688Z,5.40
2023-04-09T05:03:08.818Z,5.38
2023-04-09T05:04:08.532Z,5.43
2023-04-09T05:05:08.675Z,5.41
2023-04-09T05:06:08.503Z,5.41
2023-04-09T05:07:08.718Z,5.43
2023-04-09T05:08:08.490Z,5.43
2023-04-09T05:09:08.671Z,5.45
2023-04-09T05:10:08.514Z,5.45
2023-04-09T05:11:08.717Z,5.46
2023-04-09T05:12:08.449Z,5.46
2023-04-09T05:13:08.613Z,5.48
2023-04-09T05:14:08.429Z,5.49
2023-04-09T05:15:08.664Z,5.49
2023-04-09T05:16:08.447Z,5.52
2023-04-09T05:17:08.675Z,5.52
2023-04-09T05:18:08.384Z,5.52
2023-04-09T05:19:12.896Z,5.50
2023-04-09T05:20:08.363Z,5.52
2023-04-09T05:21:08.440Z,5.52
2023-04-09T05:22:08.337Z,5.53
2023-04-09T05:23:08.520Z,5.55
2023-04-09T05:24:08.318Z,5.55
2023-04-09T05:25:08.403Z,5.57
2023-04-09T05:26:08.301Z,5.59
2023-04-09T05:27:08.419Z,5.60
2023-04-09T05:28:08.284Z,5.63
2023-04-09T05:29:09.321Z,5.63
2023-04-09T05:30:08.289Z,5.64
2023-04-09T05:31:08.439Z,5.66
2023-04-09T05:32:08.246Z,5.66
2023-04-09T05:33:08.333Z,5.66
2023-04-09T05:34:08.232Z,5.66
2023-04-09T05:35:08.381Z,5.66
2023-04-09T05:36:08.627Z,5.66
2023-04-09T05:37:08.311Z,5.64
2023-04-09T05:38:08.178Z,5.67
2023-04-09T05:39:08.298Z,5.68
2023-04-09T05:40:08.172Z,5.67
2023-04-09T05:41:08.296Z,5.68
2023-04-09T05:42:08.173Z,5.70
2023-04-09T05:43:08.219Z,5.70
2023-04-09T05:44:08.113Z,5.70
2023-04-09T05:45:08.135Z,5.71
2023-04-09T05:46:08.167Z,5.71
2023-04-09T05:47:08.179Z,5.73
2023-04-09T05:48:08.081Z,5.75
2023-04-09T05:49:08.160Z,5.74
2023-04-09T05:50:08.060Z,5.74
2023-04-09T05:51:08.172Z,5.73
2023-04-09T05:52:08.041Z,5.74
2023-04-09T05:53:08.104Z,5.77
2023-04-09T05:54:08.027Z,5.74
2023-04-09T05:55:08.157Z,5.74
2023-04-09T05:56:07.991Z,5.74
2023-04-09T05:57:08.095Z,5.75
2023-04-09T05:58:07.994Z,5.77
2023-04-09T05:59:09.019Z,5.78
2023-04-09T06:00:07.991Z,5.81
2023-04-09T06:01:08.078Z,5.81
2023-04-09T06:02:08.055Z,5.83
2023-04-09T06:03:08.162Z,5.86
2023-04-09T06:04:07.971Z,5.89
2023-04-09T06:05:08.043Z,5.91
2023-04-09T06:06:07.905Z,5.93
2023-04-09T06:07:10.016Z,5.96
2023-04-09T06:08:07.889Z,5.95
2023-04-09T06:09:08.996Z,5.98
2023-04-09T06:10:07.898Z,6.01
2023-04-09T06:11:08.909Z,6.01
2023-04-09T06:12:07.848Z,6.04
2023-04-09T06:13:28.910Z,6.06
2023-04-09T06:14:07.835Z,6.06
2023-04-09T06:15:09.937Z,6.04
2023-04-09T06:16:07.826Z,6.07
2023-04-09T06:17:09.901Z,6.09
2023-04-09T06:18:07.834Z,6.11
2023-04-09T06:19:07.875Z,6.16
2023-04-09T06:20:07.768Z,6.14
2023-04-09T06:21:07.864Z,6.18
2023-04-09T06:22:07.729Z,6.19
2023-04-09T06:23:07.902Z,6.22
2023-04-09T06:24:07.786Z,6.26
2023-04-09T06:25:07.823Z,6.30
2023-04-09T06:26:07.695Z,6.30
2023-04-09T06:27:07.827Z,6.29
2023-04-09T06:28:07.675Z,6.30
2023-04-09T06:29:07.829Z,6.32
2023-04-09T06:30:07.656Z,6.33
2023-04-09T06:31:07.828Z,6.36
2023-04-09T06:32:07.631Z,6.41
2023-04-09T06:33:07.816Z,6.46
2023-04-09T06:34:07.612Z,6.44
2023-04-09T06:35:09.725Z,6.47
2023-04-09T06:36:07.622Z,6.50
2023-04-09T06:37:07.678Z,6.53
2023-04-09T06:38:07.580Z,6.56
2023-04-09T06:39:07.680Z,6.56
2023-04-09T06:40:07.565Z,6.58
2023-04-09T06:41:07.811Z,6.56
2023-04-09T06:42:07.692Z,6.54
2023-04-09T06:43:07.600Z,6.54
2023-04-09T06:44:07.555Z,6.58
2023-04-09T06:45:07.941Z,6.61
2023-04-09T06:46:07.483Z,6.61
2023-04-09T06:47:07.681Z,6.61
2023-04-09T06:48:07.463Z,6.61
2023-04-09T06:49:07.571Z,6.68
2023-04-09T06:50:07.450Z,6.69
2023-04-09T06:51:07.613Z,6.72
2023-04-09T06:52:07.436Z,6.73
2023-04-09T06:53:07.579Z,6.73
2023-04-09T06:54:07.426Z,6.79
2023-04-09T06:55:07.490Z,6.81
2023-04-09T06:56:07.611Z,6.86
2023-04-09T06:57:07.457Z,6.91
2023-04-09T06:58:07.354Z,6.98
2023-04-09T06:59:07.553Z,6.99
2023-04-09T07:00:07.326Z,6.95
2023-04-09T07:01:08.512Z,6.91
2023-04-09T07:02:07.523Z,6.89
2023-04-09T07:03:07.409Z,6.86
2023-04-09T07:04:07.478Z,6.81
2023-04-09T07:05:08.489Z,6.80
2023-04-09T07:06:07.313Z,6.77
2023-04-09T07:07:07.637Z,6.69
2023-04-09T07:08:07.336Z,6.65
2023-04-09T07:09:07.414Z,6.63
2023-04-09T07:10:07.287Z,6.62
2023-04-09T07:11:07.403Z,6.62
2023-04-09T07:12:07.255Z,6.61
2023-04-09T07:13:07.352Z,6.58
2023-04-09T07:14:07.185Z,6.61
2023-04-09T07:15:07.635Z,6.61
2023-04-09T07:16:07.180Z,6.62
2023-04-09T07:17:07.236Z,6.61
2023-04-09T07:18:07.191Z,6.61
2023-04-09T07:19:07.254Z,6.59
2023-04-09T07:20:07.132Z,6.56
2023-04-09T07:21:07.297Z,6.54
2023-04-09T07:22:07.110Z,6.50
2023-04-09T07:23:07.168Z,6.47
2023-04-09T07:24:07.074Z,6.50
2023-04-09T07:25:07.189Z,6.58
2023-04-09T07:26:07.067Z,6.63
2023-04-09T07:27:07.159Z,6.69
2023-04-09T07:28:07.060Z,6.72
2023-04-09T07:29:07.231Z,6.76
2023-04-09T07:30:07.027Z,6.79
2023-04-09T07:31:07.172Z,6.83
2023-04-09T07:32:06.999Z,6.90
2023-04-09T07:33:07.133Z,6.95
2023-04-09T07:34:06.983Z,6.98
2023-04-09T07:35:07.109Z,6.97
2023-04-09T07:36:07.063Z,6.97
2023-04-09T07:37:07.018Z,6.97
2023-04-09T07:38:06.928Z,6.95
2023-04-09T07:39:06.997Z,6.95
2023-04-09T07:40:06.923Z,6.99
2023-04-09T07:41:08.029Z,7.05
2023-04-09T07:42:06.935Z,7.08
2023-04-09T07:43:06.914Z,7.08
2023-04-09T07:44:06.933Z,7.16
2023-04-09T07:45:06.952Z,7.26
2023-04-09T07:46:06.865Z,7.37
2023-04-09T07:47:07.959Z,7.45
2023-04-09T07:48:06.830Z,7.50
2023-04-09T07:49:06.879Z,7.56
2023-04-09T07:50:06.802Z,7.63
2023-04-09T07:51:06.903Z,7.74
2023-04-09T07:52:06.795Z,7.74
2023-04-09T07:53:06.946Z,7.67
2023-04-09T07:54:06.764Z,7.66
2023-04-09T07:55:06.819Z,7.63
2023-04-09T07:56:06.828Z,7.63
2023-04-09T07:57:06.926Z,7.75
2023-04-09T07:58:06.910Z,7.87
2023-04-09T07:59:06.945Z,8.02
2023-04-09T08:00:06.710Z,8.14
2023-04-09T08:01:06.809Z,8.14
2023-04-09T08:02:06.758Z,8.15
2023-04-09T08:03:07.057Z,8.20
2023-04-09T08:04:06.870Z,8.30
2023-04-09T08:05:06.880Z,8.30
2023-04-09T08:06:06.637Z,8.36
2023-04-09T08:07:06.728Z,8.37
2023-04-09T08:08:06.740Z,8.39
2023-04-09T08:09:06.697Z,8.36
2023-04-09T08:10:06.610Z,8.33
2023-04-09T08:11:06.707Z,8.35
2023-04-09T08:12:06.653Z,8.33
2023-04-09T08:13:06.614Z,8.29
2023-04-09T08:14:06.556Z,8.26
2023-04-09T08:15:06.622Z,8.21
2023-04-09T08:16:06.561Z,8.08
2023-04-09T08:17:06.626Z,8.03
2023-04-09T08:18:06.936Z,7.94
2023-04-09T08:19:06.571Z,7.90
2023-04-09T08:20:06.505Z,7.89
2023-04-09T08:21:06.493Z,7.89
2023-04-09T08:22:06.495Z,7.94
2023-04-09T08:23:06.586Z,7.97
2023-04-09T08:24:06.461Z,8.02
2023-04-09T08:25:06.465Z,8.04
2023-04-09T08:26:06.548Z,8.14
2023-04-09T08:27:06.440Z,8.26
2023-04-09T08:28:07.493Z,8.28
2023-04-09T08:29:06.417Z,8.26
2023-04-09T08:30:06.565Z,8.25
2023-04-09T08:31:06.398Z,8.20
2023-04-09T08:32:07.549Z,8.17
2023-04-09T08:33:06.411Z,8.25
2023-04-09T08:34:06.473Z,8.33
2023-04-09T08:35:06.355Z,8.36
2023-04-09T08:36:06.408Z,8.36
2023-04-09T08:37:06.336Z,8.37
2023-04-09T08:38:06.754Z,8.37
2023-04-09T08:39:06.301Z,8.39
2023-04-09T08:40:06.343Z,8.45
2023-04-09T08:41:06.288Z,8.50
2023-04-09T08:42:06.280Z,8.57
2023-04-09T08:43:06.258Z,8.57
2023-04-09T08:44:06.284Z,8.48
2023-04-09T08:45:06.258Z,8.35
2023-04-09T08:46:06.272Z,8.25
2023-04-09T08:47:06.218Z,8.17
2023-04-09T08:48:06.272Z,8.10
2023-04-09T08:49:06.206Z,8.08
2023-04-09T08:50:06.215Z,8.07
2023-04-09T08:51:06.196Z,8.08
2023-04-09T08:52:06.260Z,8.08
2023-04-09T08:53:06.177Z,8.11
2023-04-09T08:54:06.244Z,8.15
2023-04-09T08:55:06.195Z,8.18
2023-04-09T08:56:06.205Z,8.26
2023-04-09T08:57:06.135Z,8.33
2023-04-09T08:58:06.210Z,8.36
2023-04-09T08:59:06.094Z,8.37
2023-04-09T09:00:06.102Z,8.33
2023-04-09T09:01:06.091Z,8.33
2023-04-09T09:02:06.140Z,8.32
2023-04-09T09:03:06.379Z,8.29
2023-04-09T09:04:06.119Z,8.28
2023-04-09T09:05:06.029Z,8.25
2023-04-09T09:06:06.019Z,8.26
2023-04-09T09:07:06.005Z,8.26
2023-04-09T09:08:05.996Z,8.25
2023-04-09T09:09:06.003Z,8.21
2023-04-09T09:10:06.008Z,8.25
2023-04-09T09:11:05.971Z,8.29
2023-04-09T09:12:05.979Z,8.39
2023-04-09T09:13:05.949Z,8.51
2023-04-09T09:14:05.990Z,8.55
2023-04-09T09:15:05.927Z,8.60
2023-04-09T09:16:05.916Z,8.99
2023-04-09T09:17:06.026Z,9.39
2023-04-09T09:18:06.019Z,9.71
2023-04-09T09:19:05.892Z,9.79
2023-04-09T09:20:05.912Z,9.76
2023-04-09T09:21:05.854Z,9.73
2023-04-09T09:22:05.850Z,9.63
2023-04-09T09:23:05.866Z,9.52
2023-04-09T09:24:05.913Z,9.42
2023-04-09T09:25:05.833Z,9.31
2023-04-09T09:26:05.850Z,9.18
2023-04-09T09:27:05.818Z,9.12
2023-04-09T09:28:05.799Z,9.04
2023-04-09T09:29:05.983Z,8.96
2023-04-09T09:30:05.803Z,8.88
2023-04-09T09:31:05.767Z,8.81
2023-04-09T09:32:05.760Z,8.76
2023-04-09T09:33:05.745Z,8.71
2023-04-09T09:34:05.723Z,8.60
2023-04-09T09:35:05.725Z,8.51
2023-04-09T09:36:05.804Z,8.47
2023-04-09T09:37:06.821Z,8.48
2023-04-09T09:38:05.701Z,8.45
2023-04-09T09:39:05.686Z,8.45
2023-04-09T09:40:05.698Z,8.42
2023-04-09T09:41:05.658Z,8.44
2023-04-09T09:42:05.648Z,8.44
2023-04-09T09:43:05.633Z,8.40
2023-04-09T09:44:05.624Z,8.40
2023-04-09T09:45:05.614Z,8.37
2023-04-09T09:46:05.660Z,8.36
2023-04-09T09:47:05.609Z,8.30
2023-04-09T09:48:05.673Z,8.29
2023-04-09T09:49:05.598Z,8.28
2023-04-09T09:50:05.574Z,8.28
2023-04-09T09:51:05.544Z,8.22
2023-04-09T09:52:05.569Z,8.18
2023-04-09T09:53:05.537Z,8.14
2023-04-09T09:54:05.593Z,8.15
2023-04-09T09:55:05.512Z,8.10
2023-04-09T09:56:05.560Z,8.11
2023-04-09T09:57:05.487Z,8.17
2023-04-09T09:58:05.474Z,8.26
2023-04-09T09:59:05.495Z,8.29
2023-04-09T10:00:05.511Z,8.69
2023-04-09T10:01:05.464Z,8.96
2023-04-09T10:02:05.655Z,9.96
2023-04-09T10:03:05.679Z,10.76
2023-04-09T10:04:05.507Z,11.35
2023-04-09T10:05:05.397Z,11.87
2023-04-09T10:06:05.463Z,12.38
2023-04-09T10:07:05.394Z,12.87
2023-04-09T10:08:05.439Z,12.99
2023-04-09T10:09:05.412Z,12.96
2023-04-09T10:10:05.363Z,12.48
2023-04-09T10:11:05.344Z,11.82
2023-04-09T10:12:05.331Z,11.38
2023-04-09T10:13:05.332Z,11.11
2023-04-09T10:14:05.428Z,10.94
2023-04-09T10:15:05.293Z,10.77
2023-04-09T10:16:05.407Z,10.59
2023-04-09T10:17:05.278Z,10.42
2023-04-09T10:18:05.578Z,10.28
2023-04-09T10:19:05.285Z,10.14
2023-04-09T10:20:05.273Z,10.03
2023-04-09T10:21:05.240Z,9.99
2023-04-09T10:22:05.261Z,9.94
2023-04-09T10:23:05.212Z,9.83
2023-04-09T10:24:05.205Z,9.71
2023-04-09T10:25:05.210Z,9.66
2023-04-09T10:26:05.204Z,9.63
2023-04-09T10:27:05.174Z,9.56
2023-04-09T10:28:05.147Z,9.52
2023-04-09T10:29:05.150Z,9.60
2023-04-09T10:30:05.226Z,9.70
2023-04-09T10:31:05.169Z,9.75
2023-04-09T10:32:05.116Z,9.82
2023-04-09T10:33:05.132Z,9.86
2023-04-09T10:34:05.098Z,9.91
2023-04-09T10:35:05.080Z,9.89
2023-04-09T10:36:05.156Z,9.89
2023-04-09T10:37:05.072Z,9.91
2023-04-09T10:38:05.069Z,9.91
2023-04-09T10:39:05.056Z,9.81
2023-04-09T10:40:05.040Z,9.81
2023-04-09T10:41:05.066Z,9.83
2023-04-09T10:42:05.002Z,9.86
2023-04-09T10:43:04.997Z,9.91
2023-04-09T10:44:05.021Z,9.97
2023-04-09T10:45:04.980Z,10.01
2023-04-09T10:46:05.010Z,10.14
2023-04-09T10:47:04.970Z,10.22
2023-04-09T10:48:04.983Z,10.36
2023-04-09T10:49:04.940Z,10.46
2023-04-09T10:50:05.035Z,10.53
2023-04-09T10:51:04.915Z,10.51
2023-04-09T10:52:04.965Z,10.46
2023-04-09T10:53:04.898Z,10.42
2023-04-09T10:54:04.909Z,10.32
2023-04-09T10:55:04.871Z,10.33
2023-04-09T10:56:04.875Z,10.36
2023-04-09T10:57:04.875Z,10.39
2023-04-09T10:58:04.949Z,10.46
2023-04-09T10:59:04.827Z,10.51
2023-04-09T11:00:04.847Z,10.52
2023-04-09T11:01:04.801Z,10.62
2023-04-09T11:02:04.871Z,10.66
2023-04-09T11:03:04.980Z,10.68
2023-04-09T11:04:04.785Z,10.71
2023-04-09T11:05:04.828Z,10.77
2023-04-09T11:06:04.799Z,10.81
2023-04-09T11:07:04.745Z,10.81
2023-04-09T11:08:04.751Z,10.84
2023-04-09T11:09:04.729Z,10.88
2023-04-09T11:10:04.732Z,10.91
2023-04-09T11:11:04.755Z,10.86
2023-04-09T11:12:04.715Z,10.80
2023-04-09T11:13:04.710Z,10.77
2023-04-09T11:14:04.718Z,10.76
2023-04-09T11:15:04.656Z,10.70
2023-04-09T11:16:04.675Z,10.70
2023-04-09T11:17:04.638Z,10.58
2023-04-09T11:18:04.657Z,10.53
2023-04-09T11:19:04.650Z,10.46
2023-04-09T11:20:04.640Z,10.44
2023-04-09T11:21:04.680Z,10.47
2023-04-09T11:22:04.614Z,10.47
2023-04-09T11:23:04.589Z,10.52
2023-04-09T11:24:04.606Z,10.59
2023-04-09T11:25:04.554Z,10.68
2023-04-09T11:26:04.586Z,10.78
2023-04-09T11:27:04.543Z,10.84
2023-04-09T11:28:04.587Z,10.89
2023-04-09T11:29:04.518Z,10.96
2023-04-09T11:30:04.532Z,11.01
2023-04-09T11:31:04.542Z,11.09
2023-04-09T11:32:04.585Z,11.09
2023-04-09T11:33:04.519Z,11.09
2023-04-09T11:34:04.489Z,11.09
2023-04-09T11:35:04.451Z,11.03
2023-04-09T11:36:04.503Z,11.06
2023-04-09T11:37:04.425Z,11.07
2023-04-09T11:38:04.430Z,11.09
2023-04-09T11:39:04.418Z,11.10
2023-04-09T11:40:04.403Z,11.07
2023-04-09T11:41:04.391Z,11.02
2023-04-09T11:42:04.434Z,10.95
2023-04-09T11:43:04.374Z,10.86
2023-04-09T11:44:04.383Z,10.83
2023-04-09T11:45:04.338Z,10.80
2023-04-09T11:46:04.335Z,10.80
2023-04-09T11:47:04.419Z,10.86
2023-04-09T11:48:04.428Z,10.94
2023-04-09T11:49:04.316Z,11.03
2023-04-09T11:50:04.391Z,11.17
2023-04-09T11:51:04.296Z,11.29
2023-04-09T11:52:04.284Z,11.43
2023-04-09T11:53:04.267Z,11.53
2023-04-09T11:54:04.264Z,11.61
2023-04-09T11:55:04.241Z,11.70
2023-04-09T11:56:04.259Z,11.77
2023-04-09T11:57:04.221Z,11.86
2023-04-09T11:58:04.217Z,11.85
2023-04-09T11:59:04.191Z,11.89
2023-04-09T12:00:05.324Z,11.86
2023-04-09T12:01:04.192Z,11.83
2023-04-09T12:02:04.283Z,11.75
2023-04-09T12:03:04.785Z,11.64
2023-04-09T12:04:04.363Z,11.54
2023-04-09T12:05:04.182Z,11.52
2023-04-09T12:06:04.252Z,11.36
2023-04-09T12:07:04.110Z,11.29
2023-04-09T12:08:04.168Z,11.28
2023-04-09T12:09:04.097Z,11.17
2023-04-09T12:10:04.244Z,11.07
2023-04-09T12:11:04.062Z,11.01
2023-04-09T12:12:04.098Z,10.99
2023-04-09T12:13:04.059Z,10.99
2023-04-09T12:14:04.179Z,10.99
2023-04-09T12:15:04.043Z,10.98
2023-04-09T12:16:04.133Z,11.02
2023-04-09T12:17:04.041Z,10.99
2023-04-09T12:18:04.119Z,11.01
2023-04-09T12:19:04.015Z,11.03
2023-04-09T12:20:04.002Z,11.07
2023-04-09T12:21:03.978Z,11.13
2023-04-09T12:22:03.991Z,11.20
2023-04-09T12:23:03.961Z,11.27
2023-04-09T12:24:03.965Z,11.36
2023-04-09T12:25:03.927Z,11.52
2023-04-09T12:26:04.020Z,11.65
2023-04-09T12:27:03.929Z,11.75
2023-04-09T12:28:03.970Z,11.85
2023-04-09T12:29:03.883Z,11.87
2023-04-09T12:30:03.894Z,11.90
2023-04-09T12:31:03.953Z,11.85
2023-04-09T12:32:03.991Z,11.78
2023-04-09T12:33:03.929Z,11.70
2023-04-09T12:34:03.862Z,11.64
2023-04-09T12:35:03.829Z,11.59
2023-04-09T12:36:03.897Z,11.41
2023-04-09T12:37:03.824Z,11.31
2023-04-09T12:38:03.801Z,11.24
2023-04-09T12:39:03.785Z,11.13
2023-04-09T12:40:03.803Z,11.07
2023-04-09T12:41:03.756Z,11.01
2023-04-09T12:42:03.784Z,10.99
2023-04-09T12:43:03.765Z,10.98
2023-04-09T12:44:03.737Z,10.94
2023-04-09T12:45:03.720Z,10.95
2023-04-09T12:46:03.744Z,10.96
2023-04-09T12:47:03.703Z,10.96
2023-04-09T12:48:03.773Z,10.91
2023-04-09T12:49:03.679Z,10.88
2023-04-09T12:50:03.672Z,10.84
2023-04-09T12:51:03.658Z,10.84
2023-04-09T12:52:03.651Z,10.84
2023-04-09T12:53:03.650Z,10.86
2023-04-09T12:54:03.677Z,10.84
2023-04-09T12:55:03.613Z,10.81
2023-04-09T12:56:03.660Z,10.81
2023-04-09T12:57:03.609Z,10.81
2023-04-09T12:58:03.616Z,10.80
2023-04-09T12:59:03.575Z,10.78
2023-04-09T13:00:03.577Z,10.77
2023-04-09T13:01:03.578Z,10.76
2023-04-09T13:02:03.695Z,10.78
2023-04-09T13:03:03.646Z,10.86
2023-04-09T13:04:03.613Z,10.96
2023-04-09T13:05:03.509Z,11.06
2023-04-09T13:06:03.503Z,11.14
2023-04-09T13:07:03.511Z,11.25
2023-04-09T13:08:03.545Z,11.36
2023-04-09T13:09:03.495Z,11.49
2023-04-09T13:10:03.506Z,11.61
2023-04-09T13:11:03.451Z,11.74
2023-04-09T13:12:03.492Z,11.82
2023-04-09T13:13:03.457Z,11.87
2023-04-09T13:14:03.437Z,11.97
2023-04-09T13:15:03.451Z,12.08
2023-04-09T13:16:03.418Z,12.11
2023-04-09T13:17:03.424Z,12.15
2023-04-09T13:18:03.517Z,12.16
2023-04-09T13:19:03.363Z,12.24
2023-04-09T13:20:03.442Z,12.29
2023-04-09T13:21:03.374Z,12.27
2023-04-09T13:22:03.370Z,12.20